createdAt,value
2023-02-17T00:01:46.446Z,9.60
2023-02-17T00:04:33.804Z,9.60
2023-02-17T00:07:19.794Z,9.60
2023-02-17T00:10:06.704Z,9.60
2023-02-17T00:12:52.881Z,9.70
2023-02-17T00:15:39.475Z,9.70
2023-02-17T00:18:25.632Z,9.70
2023-02-17T00:21:20.565Z,9.70
2023-02-17T00:24:07.079Z,9.60
2023-02-17T00:26:53.172Z,9.60
2023-02-17T00:29:39.340Z,9.60
2023-02-17T00:32:25.385Z,9.60
2023-02-17T00:35:11.473Z,9.60
2023-02-17T00:38:00.907Z,9.60
2023-02-17T00:40:46.816Z,9.60
2023-02-17T00:43:32.699Z,9.60
2023-02-17T00:46:19.546Z,9.60
2023-02-17T00:49:05.712Z,9.50
2023-02-17T00:51:51.978Z,9.50
2023-02-17T00:54:39.366Z,9.40
2023-02-17T00:57:26.393Z,9.40
2023-02-17T01:00:12.762Z,9.40
2023-02-17T01:02:58.751Z,9.40
2023-02-17T01:05:47.463Z,9.50
2023-02-17T01:08:34.339Z,9.50
2023-02-17T01:11:23.808Z,9.50
2023-02-17T01:14:12.953Z,9.40
2023-02-17T01:16:59.360Z,9.30
2023-02-17T01:19:47.722Z,9.20
2023-02-17T01:22:37.587Z,9.10
2023-02-17T01:25:23.823Z,9.10
2023-02-17T01:28:16.911Z,9.10
2023-02-17T01:31:07.954Z,9.10
2023-02-17T01:33:56.780Z,9.10
2023-02-17T01:36:42.667Z,9.10
2023-02-17T01:39:29.378Z,9.10
2023-02-17T01:42:19.992Z,9.10
2023-02-17T01:45:20.330Z,9.10
2023-02-17T01:48:14.923Z,9.10
2023-02-17T01:51:16.445Z,9.10
2023-02-17T01:54:14.325Z,9.20
2023-02-17T01:57:02.075Z,9.20
2023-02-17T01:59:49.938Z,9.20
2023-02-17T02:02:36.464Z,9.20
2023-02-17T02:05:22.708Z,9.20
2023-02-17T02:08:11.108Z,9.20
2023-02-17T02:10:57.626Z,9.20
2023-02-17T02:13:44.136Z,9.20
2023-02-17T02:16:59.676Z,9.20
2023-02-17T02:20:05.163Z,9.20
2023-02-17T02:23:19.252Z,9.30
2023-02-17T02:26:30.201Z,9.30
2023-02-17T02:29:48.539Z,9.40
2023-02-17T02:32:53.883Z,9.30
2023-02-17T02:36:13.716Z,9.30
2023-02-17T02:39:20.911Z,9.30
2023-02-17T02:42:11.001Z,9.30
2023-02-17T02:44:58.070Z,9.30
2023-02-17T02:47:48.788Z,9.30
2023-02-17T02:51:00.319Z,9.30
2023-02-17T02:54:16.801Z,9.30
2023-02-17T02:57:03.257Z,9.30
2023-02-17T02:59:58.317Z,9.20
2023-02-17T03:02:47.834Z,9.20
2023-02-17T03:06:00.797Z,9.20
2023-02-17T03:09:08.503Z,9.30
2023-02-17T03:11:59.271Z,9.20
2023-02-17T03:14:53.071Z,9.20
2023-02-17T03:17:38.807Z,9.20
2023-02-17T03:20:29.165Z,9.20
2023-02-17T03:23:16.839Z,9.30
2023-02-17T03:26:02.798Z,9.30
2023-02-17T03:28:49.083Z,9.30
2023-02-17T03:31:35.484Z,9.40
2023-02-17T03:34:21.806Z,9.40
2023-02-17T03:37:07.853Z,9.50
2023-02-17T03:39:53.798Z,9.40
2023-02-17T03:42:39.677Z,9.50
2023-02-17T03:45:26.171Z,9.50
2023-02-17T03:48:12.335Z,9.50
2023-02-17T03:50:58.394Z,9.50
2023-02-17T03:53:44.918Z,9.50
2023-02-17T03:56:30.890Z,9.60
2023-02-17T03:59:16.812Z,9.70
2023-02-17T04:02:02.987Z,9.60
2023-02-17T04:04:49.140Z,9.70
2023-02-17T04:07:35.151Z,9.80
2023-02-17T04:10:21.335Z,9.80
2023-02-17T04:13:07.426Z,9.90
2023-02-17T04:15:53.920Z,9.90
2023-02-17T04:18:40.328Z,9.90
2023-02-17T04:21:26.570Z,9.90
2023-02-17T04:24:12.574Z,9.90
2023-02-17T04:26:58.403Z,9.90
2023-02-17T04:29:44.382Z,9.90
2023-02-17T04:32:30.317Z,9.80
2023-02-17T04:35:16.417Z,9.80
2023-02-17T04:38:02.488Z,9.90
2023-02-17T04:40:48.481Z,9.90
2023-02-17T04:43:34.609Z,9.90
2023-02-17T04:46:20.797Z,10.00
2023-02-17T04:49:06.594Z,9.90
2023-02-17T04:51:52.577Z,9.90
2023-02-17T04:54:38.511Z,9.90
2023-02-17T04:57:24.470Z,9.90
2023-02-17T05:00:11.545Z,9.90
2023-02-17T05:02:57.338Z,9.90
2023-02-17T05:05:43.630Z,9.90
2023-02-17T05:08:30.232Z,9.90
2023-02-17T05:11:16.555Z,9.90
2023-02-17T05:14:02.774Z,9.90
2023-02-17T05:16:49.158Z,9.80
2023-02-17T05:19:35.453Z,9.80
2023-02-17T05:22:21.722Z,9.80
2023-02-17T05:25:07.902Z,9.80
2023-02-17T05:27:54.103Z,9.80
2023-02-17T05:30:40.507Z,9.80
2023-02-17T05:33:26.511Z,9.80
2023-02-17T05:36:12.636Z,9.80
2023-02-17T05:38:58.896Z,9.80
2023-02-17T05:41:44.733Z,9.90
2023-02-17T05:44:31.394Z,9.90
2023-02-17T05:47:17.389Z,9.90
2023-02-17T05:50:04.300Z,9.80
2023-02-17T05:52:50.351Z,9.90
2023-02-17T05:55:36.323Z,9.90
2023-02-17T05:58:22.290Z,9.90
2023-02-17T06:01:12.474Z,9.90
2023-02-17T06:03:58.486Z,9.90
2023-02-17T06:06:44.196Z,9.90
2023-02-17T06:09:30.338Z,9.90
2023-02-17T06:12:16.400Z,9.90
2023-02-17T06:15:02.374Z,10.00
2023-02-17T06:17:48.805Z,10.00
2023-02-17T06:20:34.873Z,10.10
2023-02-17T06:23:20.764Z,10.10
2023-02-17T06:26:06.986Z,10.20
2023-02-17T06:28:52.991Z,10.20
2023-02-17T06:31:39.369Z,10.10
2023-02-17T06:34:26.282Z,9.90
2023-02-17T06:37:12.298Z,9.80
2023-02-17T06:39:58.357Z,9.80
2023-02-17T06:42:44.465Z,9.70
2023-02-17T06:45:30.361Z,9.80
2023-02-17T06:48:16.695Z,9.80
2023-02-17T06:51:02.588Z,9.80
2023-02-17T06:53:48.717Z,9.80
2023-02-17T06:56:36.372Z,9.80
2023-02-17T06:59:22.407Z,9.90
2023-02-17T07:02:12.309Z,9.90
2023-02-17T07:04:58.525Z,9.90
2023-02-17T07:07:44.618Z,10.00
2023-02-17T07:10:30.794Z,10.00
2023-02-17T07:13:16.900Z,10.10
2023-02-17T07:16:03.134Z,10.10
2023-02-17T07:18:49.386Z,10.00
2023-02-17T07:21:35.450Z,10.10
2023-02-17T07:24:21.301Z,10.20
2023-02-17T07:27:10.618Z,10.20
2023-02-17T07:29:57.316Z,10.30
2023-02-17T07:32:44.480Z,10.40
2023-02-17T07:35:30.663Z,10.50
2023-02-17T07:38:16.511Z,10.60
2023-02-17T07:41:14.830Z,10.80
2023-02-17T07:44:00.964Z,10.80
2023-02-17T07:46:47.181Z,10.90
2023-02-17T07:49:33.159Z,10.90
2023-02-17T07:52:19.264Z,11.00
2023-02-17T07:55:05.358Z,10.90
2023-02-17T07:57:51.943Z,11.00
2023-02-17T08:00:38.185Z,11.00
2023-02-17T08:03:24.177Z,11.00
2023-02-17T08:06:11.775Z,10.90
2023-02-17T08:09:17.115Z,10.70
2023-02-17T08:12:21.883Z,10.60
2023-02-17T08:15:09.504Z,10.70
2023-02-17T08:17:55.581Z,10.80
2023-02-17T08:20:41.937Z,11.00
2023-02-17T08:23:29.838Z,11.00
2023-02-17T08:26:17.677Z,11.10
2023-02-17T08:29:03.947Z,11.20
2023-02-17T08:31:52.719Z,11.00
2023-02-17T08:34:39.083Z,10.80
2023-02-17T08:37:25.258Z,10.60
2023-02-17T08:40:11.845Z,10.60
2023-02-17T08:42:58.000Z,10.60
2023-02-17T08:45:44.142Z,10.60
2023-02-17T08:48:30.328Z,10.70
2023-02-17T08:51:23.508Z,10.80
2023-02-17T08:54:11.086Z,10.90
2023-02-17T08:56:58.620Z,11.00
2023-02-17T08:59:48.096Z,11.10
2023-02-17T09:02:34.652Z,10.90
2023-02-17T09:05:20.960Z,10.90
2023-02-17T09:08:07.243Z,10.80
2023-02-17T09:10:53.345Z,10.80
2023-02-17T09:13:39.315Z,10.80
2023-02-17T09:16:25.394Z,10.80
2023-02-17T09:19:11.450Z,10.80
2023-02-17T09:21:57.434Z,11.00
2023-02-17T09:24:44.701Z,11.10
2023-02-17T09:27:30.815Z,11.20
2023-02-17T09:30:16.962Z,11.30
2023-02-17T09:33:05.269Z,11.40
2023-02-17T09:35:52.172Z,11.50
2023-02-17T09:38:39.565Z,11.60
2023-02-17T09:41:42.115Z,11.60
2023-02-17T09:44:43.169Z,11.60
2023-02-17T09:47:38.642Z,11.70
2023-02-17T09:50:53.484Z,11.70
2023-02-17T09:53:48.714Z,11.80
2023-02-17T09:56:39.620Z,11.80
2023-02-17T09:59:32.816Z,12.00
2023-02-17T10:03:06.389Z,12.30
2023-02-17T10:06:22.503Z,12.50
2023-02-17T10:09:14.416Z,13.00
2023-02-17T10:12:13.942Z,13.50
2023-02-17T10:15:19.098Z,14.00
2023-02-17T10:18:19.803Z,14.20
2023-02-17T10:21:13.070Z,13.90
2023-02-17T10:23:59.809Z,13.50
2023-02-17T10:26:45.728Z,13.30
2023-02-17T10:29:51.926Z,13.50
2023-02-17T10:32:54.418Z,13.80
2023-02-17T10:35:53.699Z,13.70
2023-02-17T10:38:42.551Z,13.80
2023-02-17T10:41:36.003Z,14.00
2023-02-17T10:44:24.541Z,14.10
2023-02-17T10:47:11.381Z,14.40
2023-02-17T10:50:01.328Z,14.90
2023-02-17T10:52:48.214Z,15.70
2023-02-17T10:55:41.125Z,16.20
2023-02-17T10:58:43.038Z,16.10
2023-02-17T11:01:29.434Z,16.10
2023-02-17T11:04:15.677Z,15.80
2023-02-17T11:07:03.118Z,15.00
2023-02-17T11:09:58.005Z,14.80
2023-02-17T11:12:44.091Z,15.20
2023-02-17T11:15:44.557Z,15.60
2023-02-17T11:18:34.214Z,16.10
2023-02-17T11:21:20.529Z,16.60
2023-02-17T11:24:07.132Z,16.90
2023-02-17T11:27:00.732Z,16.80
2023-02-17T11:29:46.601Z,16.90
2023-02-17T11:32:32.937Z,17.10
2023-02-17T11:35:31.873Z,17.50
2023-02-17T11:38:22.502Z,17.20
2023-02-17T11:41:09.503Z,16.70
2023-02-17T11:43:59.269Z,16.30
2023-02-17T11:46:53.323Z,16.10
2023-02-17T11:50:02.552Z,16.00
2023-02-17T11:53:13.174Z,15.80
2023-02-17T11:56:02.285Z,15.50
2023-02-17T11:58:57.138Z,15.40
2023-02-17T12:02:28.535Z,15.50
2023-02-17T12:05:31.296Z,15.40
2023-02-17T12:08:29.287Z,15.30
2023-02-17T12:11:52.569Z,15.70
2023-02-17T12:15:20.699Z,16.00
2023-02-17T12:18:24.634Z,15.70
2023-02-17T12:21:29.251Z,15.20
2023-02-17T12:24:37.614Z,15.00
2023-02-17T12:28:02.156Z,15.00
2023-02-17T12:31:09.151Z,14.80
2023-02-17T12:34:03.863Z,14.50
2023-02-17T12:36:51.242Z,14.40
2023-02-17T12:39:43.935Z,14.50
2023-02-17T12:42:37.154Z,14.40
2023-02-17T12:45:30.185Z,14.40
2023-02-17T12:48:24.393Z,14.30
2023-02-17T12:51:16.388Z,14.20
2023-02-17T12:54:28.915Z,14.20
2023-02-17T12:57:20.645Z,14.10
2023-02-17T13:00:30.281Z,14.10
2023-02-17T13:03:17.624Z,14.00
2023-02-17T13:06:25.756Z,14.00
2023-02-17T13:09:30.853Z,13.90
2023-02-17T13:12:22.764Z,14.00
2023-02-17T13:15:37.246Z,14.00
2023-02-17T13:18:35.711Z,14.10
2023-02-17T13:21:23.204Z,14.10
2023-02-17T13:24:30.928Z,14.00
2023-02-17T13:27:33.938Z,13.90
2023-02-17T13:30:26.183Z,13.80
2023-02-17T13:33:21.845Z,13.70
2023-02-17T13:36:17.957Z,13.70
2023-02-17T13:39:29.654Z,13.70
2023-02-17T13:42:39.471Z,13.70
2023-02-17T13:45:46.528Z,13.60
2023-02-17T13:48:34.508Z,13.60
2023-02-17T13:51:29.200Z,13.60
2023-02-17T13:54:21.151Z,13.50
2023-02-17T13:57:21.580Z,13.40
2023-02-17T14:00:14.071Z,13.40
2023-02-17T14:03:11.684Z,13.40
2023-02-17T14:05:59.730Z,13.40
2023-02-17T14:08:46.014Z,13.40
2023-02-17T14:11:33.162Z,13.40
2023-02-17T14:14:21.941Z,13.40
2023-02-17T14:17:27.983Z,13.40
2023-02-17T14:20:31.386Z,13.50
2023-02-17T14:23:17.255Z,13.50
2023-02-17T14:26:10.915Z,13.40
2023-02-17T14:29:02.830Z,13.40
2023-02-17T14:31:52.000Z,13.40
2023-02-17T14:34:38.368Z,13.40
2023-02-17T14:37:25.136Z,13.40
2023-02-17T14:40:19.454Z,13.40
2023-02-17T14:43:05.633Z,13.40
2023-02-17T14:45:51.921Z,13.40
2023-02-17T14:48:38.261Z,13.40
2023-02-17T14:51:30.963Z,13.40
2023-02-17T14:54:18.794Z,13.40
2023-02-17T14:57:12.759Z,13.30
2023-02-17T14:59:59.005Z,13.30
2023-02-17T15:02:45.326Z,13.30
2023-02-17T15:05:31.539Z,13.30
2023-02-17T15:08:27.974Z,13.20
2023-02-17T15:11:27.369Z,13.10
2023-02-17T15:14:15.660Z,13.20
2023-02-17T15:17:02.169Z,13.10
2023-02-17T15:19:49.378Z,13.00
2023-02-17T15:22:36.205Z,13.00
2023-02-17T15:25:22.506Z,13.10
2023-02-17T15:28:11.845Z,12.90
2023-02-17T15:30:57.884Z,12.90
2023-02-17T15:33:44.821Z,12.80
2023-02-17T15:36:31.787Z,12.90
2023-02-17T15:39:19.895Z,12.90
2023-02-17T15:42:12.690Z,12.90
2023-02-17T15:44:58.664Z,12.90
2023-02-17T15:47:49.843Z,12.90
2023-02-17T15:50:36.419Z,12.90
2023-02-17T15:53:22.871Z,12.90
2023-02-17T15:56:21.185Z,12.80
2023-02-17T15:59:11.645Z,12.80
2023-02-17T16:02:01.230Z,12.90
2023-02-17T16:04:48.326Z,12.80
2023-02-17T16:07:35.960Z,12.70
2023-02-17T16:10:29.262Z,12.70
2023-02-17T16:13:18.937Z,12.70
2023-02-17T16:16:09.316Z,12.70
2023-02-17T16:18:55.599Z,12.70
2023-02-17T16:21:41.601Z,12.70
2023-02-17T16:24:27.415Z,12.70
2023-02-17T16:27:16.180Z,12.70
2023-02-17T16:30:02.764Z,12.60
2023-02-17T16:32:50.734Z,12.50
2023-02-17T16:35:37.536Z,12.40
2023-02-17T16:38:24.794Z,12.20
2023-02-17T16:41:14.800Z,12.20
2023-02-17T16:44:00.804Z,12.00
2023-02-17T16:46:55.013Z,12.00
2023-02-17T16:49:47.125Z,11.80
2023-02-17T16:52:33.110Z,11.80
2023-02-17T16:55:20.903Z,11.80
2023-02-17T16:58:15.370Z,11.80
2023-02-17T17:01:01.544Z,11.70
2023-02-17T17:03:47.704Z,11.70
2023-02-17T17:06:34.470Z,11.70
2023-02-17T17:09:25.285Z,11.70
2023-02-17T17:12:11.854Z,11.70
2023-02-17T17:14:58.197Z,11.60
2023-02-17T17:17:57.429Z,11.60
2023-02-17T17:20:43.546Z,11.60
2023-02-17T17:23:29.916Z,11.50
2023-02-17T17:26:28.485Z,11.40
2023-02-17T17:29:16.894Z,11.50
2023-02-17T17:32:03.353Z,11.40
2023-02-17T17:34:52.048Z,11.50
2023-02-17T17:37:39.540Z,11.50
2023-02-17T17:40:32.848Z,11.40
2023-02-17T17:43:21.239Z,11.40
2023-02-17T17:46:16.258Z,11.40
2023-02-17T17:49:05.105Z,11.30
2023-02-17T17:51:51.358Z,11.30
2023-02-17T17:54:37.314Z,11.30
2023-02-17T17:57:23.374Z,11.30
2023-02-17T18:00:13.061Z,11.30
2023-02-17T18:03:01.876Z,11.20
2023-02-17T18:05:48.442Z,11.20
2023-02-17T18:08:35.479Z,11.10
2023-02-17T18:11:24.167Z,11.10
2023-02-17T18:14:14.141Z,11.10
2023-02-17T18:17:00.934Z,11.10
2023-02-17T18:19:47.654Z,11.10
2023-02-17T18:22:33.730Z,11.00
2023-02-17T18:25:19.941Z,11.00
2023-02-17T18:28:05.936Z,11.00
2023-02-17T18:30:52.551Z,11.00
2023-02-17T18:33:39.115Z,11.00
2023-02-17T18:36:26.940Z,11.00
2023-02-17T18:39:12.806Z,11.00
2023-02-17T18:41:58.745Z,11.00
2023-02-17T18:44:44.842Z,11.00
2023-02-17T18:47:32.101Z,11.00
2023-02-17T18:50:18.350Z,11.00
2023-02-17T18:53:05.385Z,11.00
2023-02-17T18:55:51.756Z,11.00
2023-02-17T18:58:37.973Z,11.10
2023-02-17T19:01:36.188Z,11.10
2023-02-17T19:04:22.703Z,11.10
2023-02-17T19:07:08.764Z,11.10
2023-02-17T19:09:55.375Z,11.10
2023-02-17T19:12:41.584Z,11.10
2023-02-17T19:15:27.419Z,11.10
2023-02-17T19:18:13.402Z,11.10
2023-02-17T19:20:59.659Z,11.10
2023-02-17T19:23:46.294Z,11.10
2023-02-17T19:26:32.400Z,11.20
2023-02-17T19:29:18.240Z,11.20
2023-02-17T19:32:04.986Z,11.30
2023-02-17T19:34:51.251Z,11.30
2023-02-17T19:37:37.171Z,11.30
2023-02-17T19:40:23.278Z,11.30
2023-02-17T19:43:09.382Z,11.30
2023-02-17T19:45:55.302Z,11.30
2023-02-17T19:48:41.912Z,11.40
2023-02-17T19:51:27.777Z,11.40
2023-02-17T19:54:15.028Z,11.40
2023-02-17T19:57:01.431Z,11.40
2023-02-17T19:59:47.613Z,11.40
2023-02-17T20:02:33.814Z,11.40
2023-02-17T20:05:19.940Z,11.50
2023-02-17T20:08:06.205Z,11.50
2023-02-17T20:10:52.255Z,11.60
2023-02-17T20:13:45.810Z,11.60
2023-02-17T20:16:32.515Z,11.50
2023-02-17T20:19:18.768Z,11.50
2023-02-17T20:22:09.171Z,11.50
2023-02-17T20:24:55.419Z,11.40
2023-02-17T20:27:41.382Z,11.40
2023-02-17T20:30:27.377Z,11.40
2023-02-17T20:33:13.305Z,11.40
2023-02-17T20:35:59.178Z,11.40
2023-02-17T20:38:45.609Z,11.50
2023-02-17T20:41:31.569Z,11.60
2023-02-17T20:44:18.137Z,11.60
2023-02-17T20:47:04.491Z,11.60
2023-02-17T20:49:51.367Z,11.70
2023-02-17T20:52:37.615Z,11.70
2023-02-17T20:55:25.549Z,11.80
2023-02-17T20:58:13.172Z,11.80
2023-02-17T21:00:59.138Z,11.80
2023-02-17T21:03:45.054Z,11.80
2023-02-17T21:06:33.893Z,11.80
2023-02-17T21:09:19.765Z,11.80
2023-02-17T21:12:06.033Z,11.80
2023-02-17T21:14:52.019Z,11.80
2023-02-17T21:17:38.161Z,11.80
2023-02-17T21:20:24.354Z,11.80
2023-02-17T21:23:10.446Z,11.80
2023-02-17T21:25:56.409Z,11.80
2023-02-17T21:28:44.277Z,11.80
2023-02-17T21:31:30.441Z,11.90
2023-02-17T21:34:16.716Z,11.90
2023-02-17T21:37:02.694Z,11.90
2023-02-17T21:39:48.758Z,11.80
2023-02-17T21:42:56.609Z,11.90
2023-02-17T21:45:44.845Z,11.90
2023-02-17T21:48:30.843Z,11.90
2023-02-17T21:51:18.104Z,11.80
2023-02-17T21:54:05.574Z,11.90
2023-02-17T21:56:51.944Z,11.90
2023-02-17T21:59:38.107Z,11.90
2023-02-17T22:02:24.053Z,11.80
2023-02-17T22:05:10.375Z,11.80
2023-02-17T22:07:56.604Z,11.90
2023-02-17T22:10:43.166Z,11.90
2023-02-17T22:13:29.130Z,11.90
2023-02-17T22:16:15.884Z,11.90
2023-02-17T22:19:02.966Z,11.90
2023-02-17T22:21:50.289Z,11.90
2023-02-17T22:24:36.659Z,11.90
2023-02-17T22:27:22.607Z,11.90
2023-02-17T22:30:09.671Z,11.90
2023-02-17T22:32:56.954Z,11.90
2023-02-17T22:35:43.135Z,11.90
2023-02-17T22:38:29.717Z,11.90
2023-02-17T22:41:19.360Z,11.90
2023-02-17T22:44:05.480Z,11.80
2023-02-17T22:46:51.406Z,11.80
2023-02-17T22:49:37.324Z,11.70
2023-02-17T22:52:23.316Z,11.70
2023-02-17T22:55:09.717Z,11.70
2023-02-17T22:57:55.936Z,11.70
2023-02-17T23:00:41.931Z,11.70
2023-02-17T23:03:28.028Z,11.70
2023-02-17T23:06:19.975Z,11.60
2023-02-17T23:09:08.047Z,11.60
2023-02-17T23:11:54.512Z,11.40
2023-02-17T23:14:40.804Z,11.40
2023-02-17T23:17:26.840Z,11.40
2023-02-17T23:20:12.861Z,11.40
2023-02-17T23:22:58.759Z,11.40
2023-02-17T23:25:55.609Z,11.30
2023-02-17T23:28:41.898Z,11.30
2023-02-17T23:31:27.861Z,11.20
2023-02-17T23:34:15.610Z,11.20
2023-02-17T23:37:02.094Z,11.20
2023-02-17T23:39:48.175Z,11.20
2023-02-17T23:42:34.332Z,11.10
2023-02-17T23:45:20.801Z,11.10
2023-02-17T23:48:06.883Z,11.10
2023-02-17T23:51:01.853Z,11.10
2023-02-17T23:53:48.104Z,11.10
2023-02-17T23:56:35.710Z,11.10
2023-02-17T23:59:21.870Z,11.10
